Sitka, AK

10:42 AM AKST on December 20, 2014 (GMT -0900)
Kake | Change Station
CLOSE
Current Station
Airport
Location: Kake,
Elevation: 171 ft
Nearby Weather Stations

Elev 171 ft 56.96 °N, 133.91 °W | Updated 6 minutes ago

Overcast
Overcast
43 °F
Feels Like 37 °F
N
10
Wind Variable Wind from ESE
Gusts 21 mph

Today
High -- | Low -- °F
--% Chance of Precip.
Yesterday
High -- | Low -- °F
Precip. -- in
8:38 AM 3:20 PM
Waning Crescent, 2% visible
Pressure 28.96 in
Visibility 10.0 miles
Clouds Overcast 3600 ft
Windchill 37 °F
Dew Point 39 °F
Humidity 87%
Rainfall 0.21 in
Snow Depth Not available.
UV 0 out of 12
Pollen Not available.
Air Quality Not available.
Flu Activity Not available.
METAR PAFE 201936Z AUTO 11009G18KT 10SM OVC036 06/04 A2896 RMK AO1

More Conditions Fewer Conditions

Pressure 28.96 in
Visibility 10.0 miles
Clouds Overcast 3600 ft
Windchill 37 °F
Dew Point 39 °F
Humidity 87%
Rainfall 0.21 in
Snow Depth Not available.
UV 0 out of 12
Pollen Not available.
Air Quality Not available.
Flu Activity Not available.
METAR PAFE 201936Z AUTO 11009G18KT 10SM OVC036 06/04 A2896 RMK AO1

More Conditions Fewer Conditions

10-Day Weather Forecast

Almanac

Astronomy

Dec. 20, 2014 Rise Set
Actual Time
Civil Twilight
Nautical Twilight
Astronomical Twilight
Moon
Length of Visible Light
Length of Day
Tomorrow will be .
, % of the Moon is Illuminated

Today's Extremes

State Highs State Lows

Community

WunderPhotos

Upload Photos

1,779,257 photos uploaded!

WunderBlogs® & News

Nearby

Air Quality

  Air Quality AQ Index Pollutant
Not available.

Snow Depth

Station Depth Elevation

Earthquake Activity

City Distance Mag. Time & Date
Minimum magnitude displayed is 2.5.

Coastal Water Temperatures

Place Temperature

Nearby Weather Stations